createdAt,value
2019-03-31T00:01:07.650Z,9.25
2019-03-31T00:03:26.464Z,9.22
2019-03-31T00:05:56.127Z,9.18
2019-03-31T00:08:25.787Z,9.13
2019-03-31T00:10:55.482Z,9.11
2019-03-31T00:13:25.211Z,9.06
2019-03-31T00:15:54.880Z,9.02
2019-03-31T00:18:24.618Z,8.97
2019-03-31T00:20:54.285Z,8.92
2019-03-31T00:23:23.948Z,8.92
2019-03-31T00:25:53.633Z,8.91
2019-03-31T00:28:23.317Z,8.89
2019-03-31T00:30:53.467Z,8.86
2019-03-31T00:33:23.527Z,8.81
2019-03-31T00:35:53.178Z,8.80
2019-03-31T00:38:22.875Z,8.79
2019-03-31T00:40:52.566Z,8.78
2019-03-31T00:43:22.228Z,8.75
2019-03-31T00:45:51.916Z,8.68
2019-03-31T00:48:21.560Z,8.66
2019-03-31T00:50:51.240Z,8.64
2019-03-31T00:53:20.890Z,8.61
2019-03-31T00:55:50.542Z,8.53
2019-03-31T00:58:20.212Z,8.49
2019-03-31T01:01:08.815Z,8.47
2019-03-31T01:03:38.957Z,8.47
2019-03-31T01:06:09.109Z,8.47
2019-03-31T01:08:38.740Z,8.48
2019-03-31T01:11:15.369Z,8.48
2019-03-31T01:13:45.856Z,8.48
2019-03-31T01:16:16.175Z,8.48
2019-03-31T01:18:45.941Z,8.47
2019-03-31T01:21:15.814Z,8.44
2019-03-31T01:23:45.813Z,8.43
2019-03-31T01:26:17.835Z,8.41
2019-03-31T01:28:47.555Z,8.39
2019-03-31T01:31:17.225Z,8.31
2019-03-31T01:33:46.891Z,8.26
2019-03-31T01:36:16.926Z,8.11
2019-03-31T01:38:46.659Z,8.01
2019-03-31T01:41:16.385Z,7.98
2019-03-31T01:43:46.037Z,8.00
2019-03-31T01:46:35.912Z,8.00
2019-03-31T01:49:26.124Z,8.00
2019-03-31T01:51:55.785Z,8.01
2019-03-31T01:54:25.491Z,7.99
2019-03-31T01:56:55.127Z,7.97
2019-03-31T01:59:24.798Z,7.93
2019-03-31T02:02:04.121Z,7.91
2019-03-31T02:04:25.981Z,7.91
2019-03-31T02:06:55.612Z,7.86
2019-03-31T02:09:25.284Z,7.86
2019-03-31T02:11:54.952Z,7.87
2019-03-31T02:14:24.728Z,7.87
2019-03-31T02:16:54.419Z,7.87
2019-03-31T02:19:24.058Z,7.82
2019-03-31T02:21:53.739Z,7.77
2019-03-31T02:24:23.418Z,7.73
2019-03-31T02:26:53.102Z,7.71
2019-03-31T02:29:22.830Z,7.65
2019-03-31T02:31:52.505Z,7.56
2019-03-31T02:34:22.166Z,7.46
2019-03-31T02:36:51.814Z,7.40
2019-03-31T02:39:21.471Z,7.37
2019-03-31T02:41:51.202Z,7.36
2019-03-31T02:44:20.859Z,7.36
2019-03-31T02:46:50.535Z,7.37
2019-03-31T02:49:20.209Z,7.38
2019-03-31T02:51:49.888Z,7.38
2019-03-31T02:54:19.591Z,7.39
2019-03-31T02:56:49.778Z,7.39
2019-03-31T02:59:20.037Z,7.39
2019-03-31T03:01:51.106Z,7.38
2019-03-31T03:04:41.860Z,7.36
2019-03-31T03:07:34.062Z,7.33
2019-03-31T03:10:23.948Z,7.32
2019-03-31T03:12:53.807Z,7.31
2019-03-31T03:15:28.807Z,7.30
2019-03-31T03:17:58.475Z,7.28
2019-03-31T03:20:28.248Z,7.28
2019-03-31T03:22:57.886Z,7.22
2019-03-31T03:25:27.536Z,7.09
2019-03-31T03:27:57.776Z,7.01
2019-03-31T03:30:27.588Z,6.93
2019-03-31T03:33:14.481Z,6.90
2019-03-31T03:35:28.647Z,6.88
2019-03-31T03:37:58.306Z,6.81
2019-03-31T03:40:27.978Z,6.80
2019-03-31T03:42:57.636Z,6.77
2019-03-31T03:45:27.264Z,6.76
2019-03-31T03:47:56.935Z,6.77
2019-03-31T03:50:26.595Z,6.79
2019-03-31T03:52:56.275Z,6.81
2019-03-31T03:55:25.931Z,6.38
2019-03-31T03:57:55.599Z,6.87
2019-03-31T04:00:25.261Z,6.86
2019-03-31T04:02:54.937Z,6.83
2019-03-31T04:05:24.608Z,6.85
2019-03-31T04:07:54.298Z,6.88
2019-03-31T04:11:06.941Z,6.91
2019-03-31T04:13:36.640Z,6.91
2019-03-31T04:16:06.304Z,6.94
2019-03-31T04:18:35.976Z,6.94
2019-03-31T04:21:05.671Z,6.92
2019-03-31T04:23:35.373Z,6.88
2019-03-31T04:26:05.194Z,6.86
2019-03-31T04:28:34.832Z,6.84
2019-03-31T04:31:04.471Z,6.85
2019-03-31T04:33:49.425Z,6.84
2019-03-31T04:36:05.660Z,6.86
2019-03-31T04:38:35.343Z,6.88
2019-03-31T04:41:04.984Z,6.91
2019-03-31T04:43:34.660Z,6.91
2019-03-31T04:46:04.307Z,6.93
2019-03-31T04:48:33.942Z,6.99
2019-03-31T04:51:03.710Z,7.08
2019-03-31T04:53:33.404Z,7.12
2019-03-31T04:56:03.086Z,7.15
2019-03-31T04:58:32.745Z,7.17
2019-03-31T05:01:02.509Z,7.19
2019-03-31T05:03:32.160Z,7.22
2019-03-31T05:06:01.855Z,7.23
2019-03-31T05:08:31.489Z,7.26
2019-03-31T05:11:01.173Z,7.29
2019-03-31T05:13:30.830Z,7.36
2019-03-31T05:16:00.483Z,7.45
2019-03-31T05:18:30.319Z,7.65
2019-03-31T05:21:00.008Z,7.71
2019-03-31T05:23:29.673Z,7.82
2019-03-31T05:25:59.360Z,7.86
2019-03-31T05:28:29.012Z,7.90
2019-03-31T05:30:58.671Z,7.95
2019-03-31T05:33:28.343Z,7.99
2019-03-31T05:35:58.005Z,8.03
2019-03-31T05:38:27.671Z,8.04
2019-03-31T05:40:57.337Z,8.13
2019-03-31T05:43:27.005Z,8.16
2019-03-31T05:45:56.873Z,8.18
2019-03-31T05:48:26.565Z,8.14
2019-03-31T05:50:56.253Z,8.18
2019-03-31T05:53:25.942Z,8.12
2019-03-31T05:55:55.618Z,8.18
2019-03-31T05:58:25.262Z,8.23
2019-03-31T06:00:54.948Z,8.26
2019-03-31T06:03:24.600Z,8.25
2019-03-31T06:05:54.266Z,8.21
2019-03-31T06:08:23.958Z,8.16
2019-03-31T06:10:53.652Z,8.10
2019-03-31T06:13:23.418Z,8.00
2019-03-31T06:15:53.084Z,7.93
2019-03-31T06:18:22.770Z,7.89
2019-03-31T06:20:52.424Z,7.92
2019-03-31T06:23:22.150Z,7.84
2019-03-31T06:25:51.821Z,7.78
2019-03-31T06:28:21.490Z,7.76
2019-03-31T06:30:51.147Z,7.70
2019-03-31T06:33:20.859Z,7.65
2019-03-31T06:35:50.545Z,7.65
2019-03-31T06:38:20.210Z,7.60
2019-03-31T06:40:51.847Z,7.59
2019-03-31T06:43:21.547Z,7.58
2019-03-31T06:45:51.182Z,7.63
2019-03-31T06:48:20.841Z,7.64
2019-03-31T06:50:50.488Z,7.62
2019-03-31T06:53:20.213Z,7.73
2019-03-31T06:55:49.900Z,7.78
2019-03-31T06:58:19.595Z,7.81
2019-03-31T07:00:49.296Z,7.87
2019-03-31T07:03:18.978Z,7.90
2019-03-31T07:05:48.644Z,7.94
2019-03-31T07:08:18.333Z,8.04
2019-03-31T07:10:47.984Z,8.09
2019-03-31T07:13:17.678Z,8.12
2019-03-31T07:15:47.330Z,8.12
2019-03-31T07:18:17.006Z,8.15
2019-03-31T07:20:46.660Z,8.22
2019-03-31T07:23:16.331Z,8.29
2019-03-31T07:25:46.039Z,8.36
2019-03-31T07:28:15.755Z,8.40
2019-03-31T07:30:45.407Z,8.40
2019-03-31T07:33:15.134Z,8.41
2019-03-31T07:35:44.878Z,8.48
2019-03-31T07:38:14.545Z,8.57
2019-03-31T07:40:44.241Z,8.59
2019-03-31T07:43:13.956Z,8.64
2019-03-31T07:45:43.772Z,8.70
2019-03-31T07:48:13.429Z,8.76
2019-03-31T07:50:43.095Z,8.88
2019-03-31T07:53:12.767Z,8.99
2019-03-31T07:55:42.457Z,9.13
2019-03-31T07:58:12.153Z,9.29
2019-03-31T08:00:41.852Z,9.41
2019-03-31T08:03:11.503Z,9.50
2019-03-31T08:05:41.321Z,9.57
2019-03-31T08:08:11.049Z,9.78
2019-03-31T08:10:40.720Z,9.97
2019-03-31T08:13:10.407Z,9.90
2019-03-31T08:15:40.115Z,9.85
2019-03-31T08:18:09.829Z,9.80
2019-03-31T08:20:39.516Z,9.82
2019-03-31T08:23:09.187Z,9.87
2019-03-31T08:25:39.318Z,9.88
2019-03-31T08:28:09.132Z,9.90
2019-03-31T08:30:38.838Z,9.95
2019-03-31T08:33:08.616Z,10.03
2019-03-31T08:35:47.273Z,10.03
2019-03-31T08:38:09.948Z,9.95
2019-03-31T08:40:39.608Z,9.95
2019-03-31T08:43:09.372Z,9.99
2019-03-31T08:45:39.064Z,10.01
2019-03-31T08:48:08.803Z,10.03
2019-03-31T08:50:38.762Z,10.07
2019-03-31T08:53:08.511Z,10.12
2019-03-31T08:55:38.217Z,10.18
2019-03-31T08:58:07.981Z,10.25
2019-03-31T09:00:56.718Z,10.30
2019-03-31T09:03:26.448Z,10.36
2019-03-31T09:06:01.930Z,10.43
2019-03-31T09:08:27.654Z,10.49
2019-03-31T09:10:57.365Z,10.54
2019-03-31T09:13:27.099Z,10.57
2019-03-31T09:15:56.771Z,10.60
2019-03-31T09:18:26.461Z,10.53
2019-03-31T09:20:56.187Z,10.54
2019-03-31T09:23:25.901Z,10.60
2019-03-31T09:25:55.585Z,10.64
2019-03-31T09:28:25.459Z,10.65
2019-03-31T09:30:55.141Z,10.66
2019-03-31T09:33:24.895Z,10.69
2019-03-31T09:35:54.566Z,10.66
2019-03-31T09:38:24.256Z,10.63
2019-03-31T09:40:54.160Z,10.62
2019-03-31T09:43:23.862Z,10.61
2019-03-31T09:45:53.582Z,10.58
2019-03-31T09:48:23.412Z,10.56
2019-03-31T09:50:56.373Z,10.54
2019-03-31T09:53:24.591Z,10.55
2019-03-31T09:55:54.325Z,10.58
2019-03-31T09:58:24.264Z,10.60
2019-03-31T10:00:53.984Z,10.60
2019-03-31T10:03:23.963Z,10.61
2019-03-31T10:05:53.696Z,10.57
2019-03-31T10:08:23.432Z,10.12
2019-03-31T10:10:53.165Z,10.62
2019-03-31T10:13:22.840Z,10.62
2019-03-31T10:15:56.208Z,10.70
2019-03-31T10:18:26.108Z,10.71
2019-03-31T10:20:55.814Z,10.76
2019-03-31T10:23:25.505Z,10.74
2019-03-31T10:25:55.263Z,10.80
2019-03-31T10:28:25.059Z,10.90
2019-03-31T10:30:54.745Z,10.88
2019-03-31T10:33:24.449Z,10.89
2019-03-31T10:35:54.153Z,10.94
2019-03-31T10:38:23.860Z,10.99
2019-03-31T10:40:53.644Z,11.05
2019-03-31T10:43:23.356Z,11.06
2019-03-31T10:45:53.110Z,11.08
2019-03-31T10:48:22.804Z,11.18
2019-03-31T10:50:52.506Z,11.26
2019-03-31T10:53:22.224Z,11.35
2019-03-31T10:55:51.948Z,11.46
2019-03-31T10:58:21.673Z,11.43
2019-03-31T11:00:51.382Z,11.44
2019-03-31T11:03:21.122Z,11.47
2019-03-31T11:05:50.844Z,11.53
2019-03-31T11:08:20.504Z,11.59
2019-03-31T11:10:50.259Z,11.62
2019-03-31T11:13:19.972Z,11.67
2019-03-31T11:15:49.664Z,11.74
2019-03-31T11:18:19.463Z,11.87
2019-03-31T11:20:49.177Z,11.96
2019-03-31T11:23:20.724Z,11.93
2019-03-31T11:25:50.471Z,11.90
2019-03-31T11:28:20.289Z,11.89
2019-03-31T11:30:50.035Z,11.91
2019-03-31T11:33:19.727Z,11.99
2019-03-31T11:35:49.434Z,12.10
2019-03-31T11:38:19.216Z,12.18
2019-03-31T11:40:49.010Z,12.25
2019-03-31T11:43:18.893Z,12.30
2019-03-31T11:45:48.812Z,12.31
2019-03-31T11:48:18.502Z,12.33
2019-03-31T11:50:48.223Z,12.37
2019-03-31T11:53:17.947Z,12.48
2019-03-31T11:55:47.682Z,12.60
2019-03-31T11:58:17.507Z,12.65
2019-03-31T12:00:50.316Z,12.73
2019-03-31T12:03:20.151Z,12.76
2019-03-31T12:05:49.854Z,12.73
2019-03-31T12:08:19.560Z,12.72
2019-03-31T12:10:49.290Z,12.68
2019-03-31T12:13:19.003Z,12.70
2019-03-31T12:15:49.251Z,12.58
2019-03-31T12:18:19.042Z,12.61
2019-03-31T12:20:48.774Z,12.63
2019-03-31T12:23:18.560Z,12.66
2019-03-31T12:25:48.291Z,12.67
2019-03-31T12:28:18.046Z,12.67
2019-03-31T12:30:47.754Z,12.62
2019-03-31T12:33:17.440Z,12.59
2019-03-31T12:35:47.125Z,12.55
2019-03-31T12:38:16.879Z,12.57
2019-03-31T12:40:46.593Z,12.58
2019-03-31T12:43:16.295Z,12.56
2019-03-31T12:45:46.031Z,12.60
2019-03-31T12:48:15.738Z,12.65
2019-03-31T12:50:45.441Z,12.68
2019-03-31T12:53:15.158Z,12.69
2019-03-31T12:55:59.232Z,12.78
2019-03-31T12:58:16.415Z,12.80
2019-03-31T13:00:46.193Z,12.84
2019-03-31T13:03:16.586Z,12.86
2019-03-31T13:05:46.386Z,12.82
2019-03-31T13:08:16.617Z,12.85
2019-03-31T13:10:46.313Z,12.90
2019-03-31T13:13:16.063Z,12.90
2019-03-31T13:15:45.841Z,12.91
2019-03-31T13:18:15.656Z,13.02
2019-03-31T13:20:45.454Z,13.16
2019-03-31T13:23:17.900Z,13.36
2019-03-31T13:25:47.984Z,13.38
2019-03-31T13:28:17.840Z,13.46
2019-03-31T13:30:47.691Z,13.46
2019-03-31T13:33:17.668Z,13.50
2019-03-31T13:35:47.477Z,13.53
2019-03-31T13:38:17.217Z,13.61
2019-03-31T13:40:50.382Z,13.75
2019-03-31T13:43:18.555Z,13.72
2019-03-31T13:45:48.351Z,13.70
2019-03-31T13:48:18.076Z,13.73
2019-03-31T13:50:47.847Z,13.86
2019-03-31T13:53:17.568Z,13.97
2019-03-31T13:55:47.333Z,14.02
2019-03-31T13:58:19.006Z,14.21
2019-03-31T14:00:48.849Z,14.33
2019-03-31T14:03:18.594Z,14.47
2019-03-31T14:05:48.465Z,14.62
2019-03-31T14:08:25.770Z,14.77
2019-03-31T14:10:49.585Z,14.87
2019-03-31T14:13:19.287Z,14.70
2019-03-31T14:15:49.209Z,14.74
2019-03-31T14:18:18.930Z,14.83
2019-03-31T14:20:48.770Z,14.79
2019-03-31T14:23:18.470Z,14.78
2019-03-31T14:25:48.517Z,14.79
2019-03-31T14:28:18.275Z,14.67
2019-03-31T14:30:48.028Z,14.59
2019-03-31T14:33:17.763Z,14.63
2019-03-31T14:35:47.553Z,14.61
2019-03-31T14:38:17.360Z,14.62
2019-03-31T14:40:47.000Z,14.66
2019-03-31T14:43:16.715Z,14.67
2019-03-31T14:45:46.534Z,14.65
2019-03-31T14:48:16.201Z,14.04
2019-03-31T14:50:46.012Z,14.43
2019-03-31T14:53:15.742Z,14.41
2019-03-31T14:55:45.482Z,14.29
2019-03-31T14:58:15.196Z,14.18
2019-03-31T15:00:45.019Z,14.09
2019-03-31T15:03:17.959Z,14.07
2019-03-31T15:05:46.221Z,14.02
2019-03-31T15:08:16.000Z,14.04
2019-03-31T15:10:45.719Z,14.09
2019-03-31T15:13:15.648Z,14.08
2019-03-31T15:15:45.368Z,14.06
2019-03-31T15:18:15.230Z,14.13
2019-03-31T15:20:45.014Z,14.22
2019-03-31T15:23:14.709Z,14.23
2019-03-31T15:25:44.565Z,14.23
2019-03-31T15:28:14.255Z,14.25
2019-03-31T15:30:44.054Z,14.21
2019-03-31T15:33:13.866Z,14.19
2019-03-31T15:35:43.655Z,14.19
2019-03-31T15:38:13.363Z,14.17
2019-03-31T15:40:43.076Z,14.18
2019-03-31T15:43:12.951Z,14.20
2019-03-31T15:45:42.597Z,14.19
2019-03-31T15:48:12.295Z,14.17
2019-03-31T15:50:42.054Z,14.21
2019-03-31T15:53:11.841Z,14.23
2019-03-31T15:55:41.585Z,14.18
2019-03-31T15:58:11.264Z,14.13
2019-03-31T16:00:41.063Z,14.17
2019-03-31T16:03:18.184Z,14.21
2019-03-31T16:05:48.084Z,14.27
2019-03-31T16:08:17.555Z,14.28
2019-03-31T16:10:46.708Z,14.23
2019-03-31T16:13:15.878Z,14.20
2019-03-31T16:15:45.159Z,14.18
2019-03-31T16:18:14.386Z,14.20
2019-03-31T16:20:43.526Z,14.19
2019-03-31T16:23:12.658Z,14.14
2019-03-31T16:25:45.863Z,14.04
2019-03-31T16:28:15.268Z,14.04
2019-03-31T16:30:44.554Z,14.06
2019-03-31T16:33:13.881Z,14.00
2019-03-31T16:35:43.165Z,13.95
2019-03-31T16:38:12.394Z,13.91
2019-03-31T16:40:41.527Z,13.93
2019-03-31T16:43:10.734Z,13.92
2019-03-31T16:45:39.972Z,13.91
2019-03-31T16:48:09.191Z,13.86
2019-03-31T16:50:38.378Z,13.75
2019-03-31T16:53:07.810Z,13.68
2019-03-31T16:55:37.046Z,13.57
2019-03-31T16:58:09.339Z,13.45
2019-03-31T17:00:37.394Z,13.38
2019-03-31T17:03:06.544Z,13.34
2019-03-31T17:05:35.678Z,13.34
2019-03-31T17:08:04.819Z,13.28
2019-03-31T17:10:33.956Z,13.14
2019-03-31T17:13:03.320Z,13.01
2019-03-31T17:15:32.549Z,12.89
2019-03-31T17:18:01.743Z,12.74
2019-03-31T17:20:30.948Z,12.62
2019-03-31T17:23:00.172Z,12.52
2019-03-31T17:25:29.342Z,12.48
2019-03-31T17:27:58.474Z,12.41
2019-03-31T17:30:27.687Z,12.33
2019-03-31T17:32:56.982Z,12.27
2019-03-31T17:35:26.524Z,12.19
2019-03-31T17:37:56.311Z,12.10
2019-03-31T17:40:25.762Z,12.01
2019-03-31T17:42:54.892Z,11.94
2019-03-31T17:45:24.379Z,11.90
2019-03-31T17:47:53.872Z,11.85
2019-03-31T17:50:23.263Z,11.81
2019-03-31T17:52:52.525Z,11.74
2019-03-31T17:55:22.250Z,11.63
2019-03-31T17:57:51.734Z,11.53
2019-03-31T18:00:21.383Z,11.40
2019-03-31T18:02:50.737Z,11.30
2019-03-31T18:05:20.090Z,11.24
2019-03-31T18:07:49.869Z,11.19
2019-03-31T18:10:21.318Z,11.11
2019-03-31T18:12:51.009Z,11.03
2019-03-31T18:15:20.710Z,10.96
2019-03-31T18:17:50.752Z,10.90
2019-03-31T18:20:20.819Z,10.84
2019-03-31T18:22:50.493Z,10.76
2019-03-31T18:25:20.160Z,10.66
2019-03-31T18:27:49.980Z,10.58
2019-03-31T18:30:19.690Z,10.46
2019-03-31T18:32:49.086Z,10.39
2019-03-31T18:35:18.331Z,10.35
2019-03-31T18:37:47.710Z,10.27
2019-03-31T18:40:17.020Z,10.22
2019-03-31T18:42:46.338Z,10.17
2019-03-31T18:45:15.596Z,10.12
2019-03-31T18:47:44.806Z,10.04
2019-03-31T18:50:14.158Z,9.98
2019-03-31T18:52:43.655Z,9.91
2019-03-31T18:55:29.065Z,9.85
2019-03-31T18:58:07.225Z,9.77
2019-03-31T19:00:49.153Z,9.69
2019-03-31T19:03:37.373Z,9.64
2019-03-31T19:06:40.970Z,9.56
2019-03-31T19:09:34.457Z,9.51
2019-03-31T19:12:40.735Z,9.46
2019-03-31T19:15:18.981Z,9.41
2019-03-31T19:18:15.790Z,9.38
2019-03-31T19:21:10.795Z,9.29
2019-03-31T19:23:56.559Z,9.25
2019-03-31T19:26:59.873Z,9.20
2019-03-31T19:29:45.802Z,9.14
2019-03-31T19:32:43.267Z,9.05
2019-03-31T19:35:43.791Z,9.02
2019-03-31T19:38:44.200Z,8.88
2019-03-31T19:41:35.238Z,8.81
2019-03-31T19:44:23.541Z,8.75
2019-03-31T19:47:10.365Z,8.69
2019-03-31T19:49:57.228Z,8.60
2019-03-31T19:52:43.258Z,8.60
2019-03-31T19:55:31.469Z,8.57
2019-03-31T19:58:21.190Z,8.45
2019-03-31T20:01:18.469Z,8.39
2019-03-31T20:04:15.850Z,8.39
2019-03-31T20:06:52.263Z,8.37
2019-03-31T20:09:40.369Z,8.32
2019-03-31T20:12:28.568Z,8.26
2019-03-31T20:15:28.956Z,8.20
2019-03-31T20:18:19.928Z,8.20
2019-03-31T20:21:07.474Z,8.13
2019-03-31T20:23:43.559Z,7.25
2019-03-31T20:26:26.062Z,7.97
2019-03-31T20:29:06.817Z,7.93
2019-03-31T20:32:07.177Z,7.90
2019-03-31T20:34:41.703Z,7.82
2019-03-31T20:37:24.515Z,7.76
2019-03-31T20:40:15.863Z,7.70
2019-03-31T20:43:03.543Z,7.66
2019-03-31T20:45:32.766Z,7.57
2019-03-31T20:48:01.990Z,7.53
2019-03-31T20:50:31.256Z,7.52
2019-03-31T20:53:00.430Z,7.47
2019-03-31T20:55:29.576Z,7.42
2019-03-31T20:57:59.084Z,7.39
2019-03-31T21:00:28.267Z,7.34
2019-03-31T21:02:57.442Z,7.32
2019-03-31T21:05:26.754Z,7.29
2019-03-31T21:07:55.919Z,7.25
2019-03-31T21:10:25.031Z,7.17
2019-03-31T21:12:54.167Z,7.11
2019-03-31T21:15:23.314Z,7.06
2019-03-31T21:17:52.485Z,6.97
2019-03-31T21:20:21.625Z,6.82
2019-03-31T21:22:50.875Z,6.70
2019-03-31T21:25:20.047Z,6.61
2019-03-31T21:27:49.355Z,6.50
2019-03-31T21:30:18.475Z,6.44
2019-03-31T21:32:47.613Z,6.35
2019-03-31T21:35:16.757Z,6.28
2019-03-31T21:37:45.882Z,6.26
2019-03-31T21:40:15.026Z,6.22
2019-03-31T21:42:44.162Z,6.21
2019-03-31T21:45:13.349Z,6.21
2019-03-31T21:47:42.512Z,6.19
2019-03-31T21:50:11.724Z,6.09
2019-03-31T21:52:40.893Z,6.01
2019-03-31T21:55:10.125Z,5.94
2019-03-31T21:57:39.272Z,5.89
2019-03-31T22:00:09.077Z,5.89
2019-03-31T22:02:38.230Z,5.87
2019-03-31T22:05:07.474Z,5.85
2019-03-31T22:07:36.596Z,5.77
2019-03-31T22:10:05.802Z,5.75
2019-03-31T22:12:34.925Z,5.72
2019-03-31T22:15:04.274Z,5.71
2019-03-31T22:17:33.373Z,5.67
2019-03-31T22:20:02.521Z,5.68
2019-03-31T22:22:31.639Z,5.67
2019-03-31T22:25:00.808Z,5.63
2019-03-31T22:27:29.925Z,5.08
2019-03-31T22:29:59.073Z,5.62
2019-03-31T22:32:28.191Z,5.62
2019-03-31T22:34:57.459Z,5.61
2019-03-31T22:37:26.627Z,5.59
2019-03-31T22:39:55.753Z,5.57
2019-03-31T22:42:24.887Z,5.51
2019-03-31T22:44:54.052Z,5.44
2019-03-31T22:47:23.177Z,5.39
2019-03-31T22:49:52.328Z,5.36
2019-03-31T22:52:21.428Z,5.35
2019-03-31T22:54:50.599Z,5.31
2019-03-31T22:57:19.980Z,5.27
2019-03-31T22:59:49.105Z,4.38
2019-03-31T23:02:18.225Z,5.29
2019-03-31T23:04:47.376Z,5.33
2019-03-31T23:07:16.492Z,5.47
2019-03-31T23:09:45.622Z,5.43
2019-03-31T23:12:14.714Z,5.36
2019-03-31T23:14:43.860Z,5.34
2019-03-31T23:17:14.194Z,5.32
2019-03-31T23:19:43.314Z,5.31
2019-03-31T23:22:12.447Z,5.20
2019-03-31T23:24:41.630Z,5.12
2019-03-31T23:27:10.870Z,5.10
2019-03-31T23:29:39.955Z,5.01
2019-03-31T23:32:09.075Z,4.96
2019-03-31T23:34:38.210Z,4.89
2019-03-31T23:37:07.326Z,4.92
2019-03-31T23:39:36.481Z,4.86
2019-03-31T23:42:05.646Z,4.74
2019-03-31T23:44:34.781Z,4.72
2019-03-31T23:47:03.905Z,4.68
2019-03-31T23:49:33.039Z,4.61
2019-03-31T23:52:02.143Z,4.62
2019-03-31T23:54:31.269Z,4.64
2019-03-31T23:57:00.500Z,4.16
2019-03-31T23:59:29.624Z,4.67
